(°C)
18°
17°
15°
15°
14°
14°
13°
(°C)
14°
13°
12°
11°
11°
11°
10°
SSO
SSO
SSO
SO
SO
SO
SO
(km/h)
15-28
14-28
13-27
13-25
13-24
12-27
11-25
(mm)
0
0
0
0
0
0
0
(%)
0
0
0
0
0
0
0

Elevación del sol

/ -28.6°
sun-icon
UV 4
06:48
19:29
Gibosa creciente (124°)
17:54
00:25

METAR a 51.02°N 71.47°E (UACC)

Hora Condiciones Temperatura/
Punto de condensación
Viento Visibilidad Tiempo Nubes Presión Cambiar Bruto
VFR 18°C / 3°C 210º 8kt >10km - Few Clouds 5000ft 1003 No Significant change. Runway 22: Clear and dry, , friction coefficient 0.70. UACC 161600Z 21004MPS 9999 FEW050CB 18/03 Q1003 R22/0///70 NOSIG RMK QFE722/0962
VFR 19°C / 3°C 200º 10kt >10km - Few Clouds 5000ft 1004 No Significant change. Runway 22: Clear and dry, , friction coefficient 0.70. UACC 161530Z 20005MPS 9999 FEW050CB 19/03 Q1004 R22/0///70 NOSIG RMK QFE722/0962
VFR 19°C / 3°C 190º variable 160º to 260º 8kt >10km - Few Clouds 5000ft 1004 No Significant change. Runway 22: Clear and dry, , friction coefficient 0.70. UACC 161500Z 19004MPS 160V260 9999 FEW050CB 19/03 Q1004 R22/0///70 NOSIG RMK QFE722/0963
VFR 22°C / 2°C 200º 12kt >10km - Few Clouds 5000ft 1004 No Significant change. Runway 22: Clear and dry, , friction coefficient 0.70. UACC 161430Z 20006MPS 9999 FEW050CB 22/02 Q1004 R22/0///70 NOSIG RMK QFE722/0963
VFR 22°C / 2°C 200º 10kt >10km - Scattered Clouds 5000ft 1004 No Significant change. Runway 22: Clear and dry, , friction coefficient 0.70. UACC 161400Z 20005MPS 9999 SCT050CB 22/02 Q1004 R22/0///70 NOSIG RMK QFE722/0963
VFR 23°C / 1°C 210º 12kt >10km - Scattered Clouds 4600ft 1004 No Significant change. Runway 22: Clear and dry, , friction coefficient 0.70. UACC 161330Z 21006MPS 9999 SCT046CB 23/01 Q1004 R22/0///70 NOSIG RMK QFE722/0963
VFR 24°C / 1°C 210º 12kt >10km - Scattered Clouds 4600ft 1004 No Significant change. Runway 22: Clear and dry, , friction coefficient 0.70. UACC 161300Z 21006MPS 9999 SCT046CB 24/01 Q1004 R22/0///70 NOSIG RMK QFE722/0963
VFR 25°C / 1°C 200º 12kt >10km - Scattered Clouds 4600ft 1005 No Significant change. Runway 22: Clear and dry, , friction coefficient 0.70. UACC 161230Z 20006MPS 9999 SCT046CB 25/01 Q1005 R22/0///70 NOSIG RMK QFE723/0964
VFR 25°C / 1°C 210º 16kt >10km - Few Clouds 4300ft 1005 No Significant change. Runway 22: Clear and dry, , friction coefficient 0.70. UACC 161200Z 21008MPS 9999 FEW043CB 25/01 Q1005 R22/0///70 NOSIG RMK QFE723/0964
VFR 26°C / 1°C 220º 21kt >10km - Clouds and Visibility OK 1006 No Significant change. Runway 22: Clear and dry, , friction coefficient 0.70. UACC 161130Z 22011MPS CAVOK 26/01 Q1006 R22/0///70 NOSIG RMK QFE723/0964
VFR 27°C / 2°C 220º 17kt >10km - Clouds and Visibility OK 1006 No Significant change. Runway 22: Clear and dry, , friction coefficient 0.70. UACC 161100Z 22009MPS CAVOK 27/02 Q1006 R22/0///70 NOSIG RMK QFE723/0965
VFR 26°C / 2°C 220º 19kt >10km - Clouds and Visibility OK 1006 No Significant change. Runway 22: Clear and dry, , friction coefficient 0.70. UACC 161030Z 22010MPS CAVOK 26/02 Q1006 R22/0///70 NOSIG RMK QFE724/0965
VFR 27°C / 3°C 210º 17kt >10km - Clouds and Visibility OK 1007 No Significant change. Runway 22: Clear and dry, , friction coefficient 0.70. UACC 161000Z 21009MPS CAVOK 27/03 Q1007 R22/0///70 NOSIG RMK QFE724/0965
VFR 26°C / 3°C 220º 16kt >10km - Clouds and Visibility OK 1007 No Significant change. Runway 22: Clear and dry, , friction coefficient 0.70. UACC 160930Z 22008MPS CAVOK 26/03 Q1007 R22/0///70 NOSIG RMK QFE724/0966
VFR 26°C / 3°C 200º 19kt >10km - Clouds and Visibility OK 1007 No Significant change. Runway 22: Clear and dry, , friction coefficient 0.70. UACC 160900Z 20010MPS CAVOK 26/03 Q1007 R22/0///70 NOSIG RMK QFE724/0966
VFR 26°C / 3°C 200º 16kt >10km - Clouds and Visibility OK 1008 No Significant change. Runway 22: Clear and dry, , friction coefficient 0.70. UACC 160830Z 20008MPS CAVOK 26/03 Q1008 R22/0///70 NOSIG RMK QFE725/0966
VFR 25°C / 4°C 220º variable 180º to 240º 16kt >10km - Clouds and Visibility OK 1008 No Significant change. Runway 22: Clear and dry, , friction coefficient 0.70. UACC 160800Z 22008MPS 180V240 CAVOK 25/04 Q1008 R22/0///70 NOSIG RMK QFE725/0967
VFR 25°C / 4°C 210º variable 170º to 230º 16kt >10km - Clouds and Visibility OK 1008 No Significant change. Runway 22: Clear and dry, , friction coefficient 0.70. UACC 160730Z 21008MPS 170V230 CAVOK 25/04 Q1008 R22/0///70 NOSIG RMK QFE725/0967
VFR 24°C / 2°C 210º 14kt >10km - Clouds and Visibility OK 1009 No Significant change. Runway 22: Clear and dry, , friction coefficient 0.70. UACC 160700Z 21007MPS CAVOK 24/02 Q1009 R22/0///70 NOSIG RMK QFE726/0968
VFR 23°C / 2°C 210º variable 180º to 240º 12kt >10km - Clouds and Visibility OK 1009 No Significant change. Runway 22: Clear and dry, , friction coefficient 0.70. UACC 160630Z 21006MPS 180V240 CAVOK 23/02 Q1009 R22/0///70 NOSIG RMK QFE726/0968
VFR 22°C / 2°C 220º 14kt >10km - Clouds and Visibility OK 1009 No Significant change. Runway 22: Clear and dry, , friction coefficient 0.70. UACC 160600Z 22007MPS CAVOK 22/02 Q1009 R22/0///70 NOSIG RMK QFE726/0968
VFR 21°C / 1°C 200º 12kt >10km - Clouds and Visibility OK 1010 No Significant change. Runway 22: Clear and dry, , friction coefficient 0.70. UACC 160530Z 20006MPS CAVOK 21/01 Q1010 R22/0///70 NOSIG RMK QFE726/0968
VFR 20°C / 1°C 200º 12kt >10km - Clouds and Visibility OK 1010 No Significant change. Runway 22: Clear and dry, , friction coefficient 0.70. UACC 160500Z 20006MPS CAVOK 20/01 Q1010 R22/0///70 NOSIG RMK QFE726/0969
VFR 18°C / 5°C 160º 10kt >10km - Clouds and Visibility OK 1010 No Significant change. Runway 22: Clear and dry, , friction coefficient 0.70. UACC 160430Z 16005MPS CAVOK 18/05 Q1010 R22/0///70 NOSIG RMK QFE726/0969

VFR

18°C / 3°C

[Más]
Viento 210º 8kt
Visibilidad >10km
Tiempo -
Nubes Few Clouds 5000ft
Presión 1003
Cambiar No Significant change. Runway 22: Clear and dry, , friction coefficient 0.70.
Bruto UACC 161600Z 21004MPS 9999 FEW050CB 18/03 Q1003 R22/0///70 NOSIG RMK QFE722/0962

VFR

19°C / 3°C

[Más]
Viento 200º 10kt
Visibilidad >10km
Tiempo -
Nubes Few Clouds 5000ft
Presión 1004
Cambiar No Significant change. Runway 22: Clear and dry, , friction coefficient 0.70.
Bruto UACC 161530Z 20005MPS 9999 FEW050CB 19/03 Q1004 R22/0///70 NOSIG RMK QFE722/0962

VFR

19°C / 3°C

[Más]
Viento 190º variable 160º to 260º 8kt
Visibilidad >10km
Tiempo -
Nubes Few Clouds 5000ft
Presión 1004
Cambiar No Significant change. Runway 22: Clear and dry, , friction coefficient 0.70.
Bruto UACC 161500Z 19004MPS 160V260 9999 FEW050CB 19/03 Q1004 R22/0///70 NOSIG RMK QFE722/0963

VFR

22°C / 2°C

[Más]
Viento 200º 12kt
Visibilidad >10km
Tiempo -
Nubes Few Clouds 5000ft
Presión 1004
Cambiar No Significant change. Runway 22: Clear and dry, , friction coefficient 0.70.
Bruto UACC 161430Z 20006MPS 9999 FEW050CB 22/02 Q1004 R22/0///70 NOSIG RMK QFE722/0963

VFR

22°C / 2°C

[Más]
Viento 200º 10kt
Visibilidad >10km
Tiempo -
Nubes Scattered Clouds 5000ft
Presión 1004
Cambiar No Significant change. Runway 22: Clear and dry, , friction coefficient 0.70.
Bruto UACC 161400Z 20005MPS 9999 SCT050CB 22/02 Q1004 R22/0///70 NOSIG RMK QFE722/0963

VFR

23°C / 1°C

[Más]
Viento 210º 12kt
Visibilidad >10km
Tiempo -
Nubes Scattered Clouds 4600ft
Presión 1004
Cambiar No Significant change. Runway 22: Clear and dry, , friction coefficient 0.70.
Bruto UACC 161330Z 21006MPS 9999 SCT046CB 23/01 Q1004 R22/0///70 NOSIG RMK QFE722/0963

VFR

24°C / 1°C

[Más]
Viento 210º 12kt
Visibilidad >10km
Tiempo -
Nubes Scattered Clouds 4600ft
Presión 1004
Cambiar No Significant change. Runway 22: Clear and dry, , friction coefficient 0.70.
Bruto UACC 161300Z 21006MPS 9999 SCT046CB 24/01 Q1004 R22/0///70 NOSIG RMK QFE722/0963

VFR

25°C / 1°C

[Más]
Viento 200º 12kt
Visibilidad >10km
Tiempo -
Nubes Scattered Clouds 4600ft
Presión 1005
Cambiar No Significant change. Runway 22: Clear and dry, , friction coefficient 0.70.
Bruto UACC 161230Z 20006MPS 9999 SCT046CB 25/01 Q1005 R22/0///70 NOSIG RMK QFE723/0964

VFR

25°C / 1°C

[Más]
Viento 210º 16kt
Visibilidad >10km
Tiempo -
Nubes Few Clouds 4300ft
Presión 1005
Cambiar No Significant change. Runway 22: Clear and dry, , friction coefficient 0.70.
Bruto UACC 161200Z 21008MPS 9999 FEW043CB 25/01 Q1005 R22/0///70 NOSIG RMK QFE723/0964

VFR

26°C / 1°C

[Más]
Viento 220º 21kt
Visibilidad >10km
Tiempo -
Nubes Clouds and Visibility OK
Presión 1006
Cambiar No Significant change. Runway 22: Clear and dry, , friction coefficient 0.70.
Bruto UACC 161130Z 22011MPS CAVOK 26/01 Q1006 R22/0///70 NOSIG RMK QFE723/0964

VFR

27°C / 2°C

[Más]
Viento 220º 17kt
Visibilidad >10km
Tiempo -
Nubes Clouds and Visibility OK
Presión 1006
Cambiar No Significant change. Runway 22: Clear and dry, , friction coefficient 0.70.
Bruto UACC 161100Z 22009MPS CAVOK 27/02 Q1006 R22/0///70 NOSIG RMK QFE723/0965

VFR

26°C / 2°C

[Más]
Viento 220º 19kt
Visibilidad >10km
Tiempo -
Nubes Clouds and Visibility OK
Presión 1006
Cambiar No Significant change. Runway 22: Clear and dry, , friction coefficient 0.70.
Bruto UACC 161030Z 22010MPS CAVOK 26/02 Q1006 R22/0///70 NOSIG RMK QFE724/0965

VFR

27°C / 3°C

[Más]
Viento 210º 17kt
Visibilidad >10km
Tiempo -
Nubes Clouds and Visibility OK
Presión 1007
Cambiar No Significant change. Runway 22: Clear and dry, , friction coefficient 0.70.
Bruto UACC 161000Z 21009MPS CAVOK 27/03 Q1007 R22/0///70 NOSIG RMK QFE724/0965

VFR

26°C / 3°C

[Más]
Viento 220º 16kt
Visibilidad >10km
Tiempo -
Nubes Clouds and Visibility OK
Presión 1007
Cambiar No Significant change. Runway 22: Clear and dry, , friction coefficient 0.70.
Bruto UACC 160930Z 22008MPS CAVOK 26/03 Q1007 R22/0///70 NOSIG RMK QFE724/0966

VFR

26°C / 3°C

[Más]
Viento 200º 19kt
Visibilidad >10km
Tiempo -
Nubes Clouds and Visibility OK
Presión 1007
Cambiar No Significant change. Runway 22: Clear and dry, , friction coefficient 0.70.
Bruto UACC 160900Z 20010MPS CAVOK 26/03 Q1007 R22/0///70 NOSIG RMK QFE724/0966

VFR

26°C / 3°C

[Más]
Viento 200º 16kt
Visibilidad >10km
Tiempo -
Nubes Clouds and Visibility OK
Presión 1008
Cambiar No Significant change. Runway 22: Clear and dry, , friction coefficient 0.70.
Bruto UACC 160830Z 20008MPS CAVOK 26/03 Q1008 R22/0///70 NOSIG RMK QFE725/0966

VFR

25°C / 4°C

[Más]
Viento 220º variable 180º to 240º 16kt
Visibilidad >10km
Tiempo -
Nubes Clouds and Visibility OK
Presión 1008
Cambiar No Significant change. Runway 22: Clear and dry, , friction coefficient 0.70.
Bruto UACC 160800Z 22008MPS 180V240 CAVOK 25/04 Q1008 R22/0///70 NOSIG RMK QFE725/0967

VFR

25°C / 4°C

[Más]
Viento 210º variable 170º to 230º 16kt
Visibilidad >10km
Tiempo -
Nubes Clouds and Visibility OK
Presión 1008
Cambiar No Significant change. Runway 22: Clear and dry, , friction coefficient 0.70.
Bruto UACC 160730Z 21008MPS 170V230 CAVOK 25/04 Q1008 R22/0///70 NOSIG RMK QFE725/0967

VFR

24°C / 2°C

[Más]
Viento 210º 14kt
Visibilidad >10km
Tiempo -
Nubes Clouds and Visibility OK
Presión 1009
Cambiar No Significant change. Runway 22: Clear and dry, , friction coefficient 0.70.
Bruto UACC 160700Z 21007MPS CAVOK 24/02 Q1009 R22/0///70 NOSIG RMK QFE726/0968

VFR

23°C / 2°C

[Más]
Viento 210º variable 180º to 240º 12kt
Visibilidad >10km
Tiempo -
Nubes Clouds and Visibility OK
Presión 1009
Cambiar No Significant change. Runway 22: Clear and dry, , friction coefficient 0.70.
Bruto UACC 160630Z 21006MPS 180V240 CAVOK 23/02 Q1009 R22/0///70 NOSIG RMK QFE726/0968

VFR

22°C / 2°C

[Más]
Viento 220º 14kt
Visibilidad >10km
Tiempo -
Nubes Clouds and Visibility OK
Presión 1009
Cambiar No Significant change. Runway 22: Clear and dry, , friction coefficient 0.70.
Bruto UACC 160600Z 22007MPS CAVOK 22/02 Q1009 R22/0///70 NOSIG RMK QFE726/0968

VFR

21°C / 1°C

[Más]
Viento 200º 12kt
Visibilidad >10km
Tiempo -
Nubes Clouds and Visibility OK
Presión 1010
Cambiar No Significant change. Runway 22: Clear and dry, , friction coefficient 0.70.
Bruto UACC 160530Z 20006MPS CAVOK 21/01 Q1010 R22/0///70 NOSIG RMK QFE726/0968

VFR

20°C / 1°C

[Más]
Viento 200º 12kt
Visibilidad >10km
Tiempo -
Nubes Clouds and Visibility OK
Presión 1010
Cambiar No Significant change. Runway 22: Clear and dry, , friction coefficient 0.70.
Bruto UACC 160500Z 20006MPS CAVOK 20/01 Q1010 R22/0///70 NOSIG RMK QFE726/0969

VFR

18°C / 5°C

[Más]
Viento 160º 10kt
Visibilidad >10km
Tiempo -
Nubes Clouds and Visibility OK
Presión 1010
Cambiar No Significant change. Runway 22: Clear and dry, , friction coefficient 0.70.
Bruto UACC 160430Z 16005MPS CAVOK 18/05 Q1010 R22/0///70 NOSIG RMK QFE726/0969

TAF a 51.02°N 71.47°E (UACC)

From till


Maximum Temperature 24ºC on . Minimum Temperature 10ºC on .
From till Wind 200º 16kt. Gust 25kt. Visibility 10km or more. Scattered Clouds 4000ft. Broken Clouds 10000ft.
Temporarly from till Wind 220º 19kt. Gust 29kt. Scattered Clouds 3000ft.
From till Wind 200º 12kt. Visibility 10km or more. Scattered Clouds 2000ft. Broken Clouds 5000ft.
Temporarly from till Wind 220º 14kt. Light Showers Rain . Scattered Clouds 1100ft. Broken Clouds 2000ft.
Becoming from till Wind 230º 16kt. Visibility 10km or more. Scattered Clouds 3000ft. Broken Clouds 5000ft.
Temporarly from till Wind 240º 17kt. Gust 27kt. Visibility 3100m. Light Showers Rain . Broken Clouds 2000ft.

Bruto: TAF UACC 161100Z 1612/1712 20008G13MPS 9999 SCT040 BKN100 TX24/1612Z TN10/1701Z TEMPO 1612/1615 22010G15MPS SCT030CB FM161500 20006MPS 9999 SCT020 BKN050 TEMPO 1615/1702 22007MPS -SHRA SCT011 BKN020CB BECMG 1702/1704 23008MPS SCT030CB BKN050 TEMPO 1704/1712 24009G14MPS 3100 -SHRA BKN020CB

Imágenes actuales de satélite y lluvia para 51.02°N 71.47°E

El marcador de lugar se coloca en 51.02°N 71.47°E. [Más]

La imagen de satélite en tiempo real se aprovecha de la combinación de bandas de la luz visible y de la luz infrarrojo. Como se puede detectar cambios de temperaturas atreves de la banda infrarrojo, la imagen no está escura de noche. No obstante, la niebla y las nubes bajas son apenas visibles en las imágenes infrarrojo como las diferencias de temperaturas entre el suelo y la niebla son muy pequeñas. Por eso son casi invisibles durante la noche. Las imágenes de satélite del Meteosat (Europa) son actualizados en tiempo real cada 5 minutos. Las imágenes del GOES-16/GOES-17 (América del Norte y América del Sur) y Himawari (Asia) son actualizados cada 10 minutos.

Copyright 2021 EUMETSAT / meteoblue. / Copyright 2021 meteoblue

Radar y precipitación nowcast para 51.02°N 71.47°E

llovizna
Leve
Moderado
Fuerte
Muy fuerte
Granizo

El marcador de lugar se coloca en 51.02°N 71.47°E. Esta animación muestra lo radar de precipitaciones hasta la última hora, así como la 1h previsión. Las lloviznas o las nevadas ligeras pueden ser invisibles para el radar. La intensidad de la precipitación está codificada por colores, que van del azul claro al naranja.